Data for 05/02/2017

Time Sea-Level Adjusted Pressure Absolute Pressure Temperature Relative Humidity Dew Point   
(mb) (inHg) (mb) (inHg) (C) (F) (%) (C) (F)
00:05 1017 30.03 846 24.98 4.4 39.8 76 0.5 33
00:10 1017 30.03 846 24.98 4.4 40 76 0.6 33.2
00:15 1017 30.03 846 24.98 4.4 39.9 75 0.4 32.7
00:20 1017 30.03 846 24.98 4.3 39.7 75 0.3 32.6
00:25 1017 30.03 846 24.98 4.2 39.6 76 0.4 32.8
00:30 1017 30.03 846 24.98 4.1 39.4 76 0.3 32.5
00:35 1017 30.03 846 24.98 4 39.2 77 0.3 32.5
00:40 1017 30.03 846 24.98 3.9 39.1 78 0.4 32.7
00:45 1017 30.03 846 24.98 3.9 38.9 79 0.5 32.9
00:50 1017 30.03 846 24.98 3.8 38.8 79 0.5 32.8
00:55 1017 30.03 846 24.98 3.7 38.7 79 0.5 32.8
01:00 1017 30.03 846 24.98 3.6 38.5 79 0.3 32.6
01:05 1017 30.03 846 24.98 3.5 38.3 81 0.6 33
01:10 1017 30.03 846 24.98 3.5 38.2 80 0.4 32.7
01:15 1017 30.03 846 24.98 3.4 38 80 0.2 32.3
01:20 1017 30.03 846 24.98 3.2 37.8 80 0.1 32.1
01:25 1017 30.03 846 24.98 3.1 37.6 82 0.3 32.5
01:30 1017 30.03 846 24.98 3.2 37.8 82 0.5 32.9
01:35 1017 30.03 846 24.98 3.2 37.8 83 0.6 33.2
01:40 1017 30.03 846 24.98 3.1 37.7 84 0.7 33.3
01:45 1017 30.03 846 24.98 3.1 37.5 83 0.5 32.9
01:50 1017 30.03 846 24.98 3 37.3 85 0.7 33.3
01:55 1017 30.03 846 24.98 2.8 37.1 85 0.6 33
02:00 1017 30.03 846 24.98 2.8 37 85 0.6 33.1
02:05 1017 30.03 846 24.98 2.9 37.1 84 0.5 32.9
02:10 1017 30.03 846 24.98 2.8 37 85 0.6 33
02:15 1017 30.03 846 24.98 2.9 37.1 84 0.5 32.9
02:20 1017 30.03 846 24.98 2.9 37.2 84 0.5 33
02:25 1017 30.03 846 24.98 2.9 37.2 86 0.7 33.3
02:30 1017 30.03 846 24.98 2.9 37.3 85 0.7 33.2
02:35 1017 30.03 846 24.98 2.9 37.3 85 0.7 33.3
02:40 1017 30.03 846 24.98 2.9 37.2 85 0.7 33.2
02:45 1017 30.03 846 24.98 2.9 37.3 85 0.7 33.3
02:50 1017 30.03 846 24.98 3 37.4 86 0.8 33.5
02:55 1017 30.03 846 24.98 3 37.4 86 0.8 33.5
03:00 1017 30.03 846 24.98 3.1 37.5 86 0.9 33.7
03:05 1017 30.03 846 24.98 3.2 37.7 86 1.1 33.9
03:10 1017 30.03 846 24.98 3.2 37.8 86 1.1 34
03:15 1017 30.03 846 24.98 3.2 37.8 86 1.1 33.9
03:20 1017 30.03 846 24.98 3.2 37.8 86 1.1 34
03:25 1017 30.03 846 24.98 3.2 37.7 86 1.1 34
03:30 1017 30.03 846 24.98 3.2 37.8 87 1.2 34.1
03:35 1017 30.03 846 24.98 3.1 37.7 85 0.9 33.7
03:40 1017 30.03 847 25.01 3.1 37.5 85 0.8 33.4
03:45 1017 30.03 847 25.01 3 37.4 85 0.7 33.3
03:50 1017 30.03 847 25.01 3 37.4 85 0.8 33.4
03:55 1017 30.03 847 25.01 3 37.4 86 0.9 33.6
04:00 1017 30.03 847 25.01 3 37.3 87 1.1 33.9
04:05 1018 30.06 847 25.01 2.8 37.1 88 1 33.8
04:10 1018 30.06 847 25.01 2.7 36.9 88 0.9 33.5
04:15 1018 30.06 847 25.01 2.6 36.7 87 0.7 33.2
04:20 1018 30.06 847 25.01 2.5 36.4 88 0.6 33.1
04:25 1018 30.06 847 25.01 2.4 36.4 89 0.7 33.3
04:30 1018 30.06 847 25.01 2.5 36.5 88 0.8 33.4
04:35 1018 30.06 847 25.01 2.4 36.4 88 0.7 33.2
04:40 1018 30.06 847 25.01 2.4 36.3 89 0.7 33.2
04:45 1018 30.06 847 25.01 2.4 36.3 89 0.7 33.3
04:50 1018 30.06 847 25.01 2.3 36.1 89 0.7 33.2
04:55 1018 30.06 847 25.01 2.2 36 89 0.6 33.1
05:00 1018 30.06 847 25.01 2.2 36 89 0.7 33.2
05:05 1018 30.06 847 25.01 2.2 35.9 90 0.7 33.2
05:10 1018 30.06 847 25.01 2 35.6 90 0.6 33.1
05:15 1018 30.06 847 25.01 2.1 35.8 91 0.8 33.4
05:20 1018 30.06 847 25.01 2.1 35.9 91 0.8 33.4
05:25 1018 30.06 847 25.01 2.1 35.8 90 0.7 33.2
05:30 1018 30.06 847 25.01 2.1 35.7 91 0.7 33.3
05:35 1018 30.06 847 25.01 2.1 35.8 90 0.7 33.2
05:40 1018 30.06 847 25.01 2 35.6 91 0.6 33.1
05:45 1018 30.06 847 25.01 2.1 35.7 90 0.5 33
05:50 1018 30.06 847 25.01 1.9 35.4 90 0.5 32.9
05:55 1018 30.06 847 25.01 1.8 35.2 90 0.3 32.5
06:00 1018 30.06 847 25.01 1.6 34.8 90 0 32.1
06:05 1018 30.06 847 25.01 1.5 34.7 90 0.1 32.1
06:10 1018 30.06 847 25.01 1.6 34.8 90 0.1 32.2
06:15 1018 30.06 848 25.04 1.7 35 89 0.1 32.1
06:20 1018 30.06 848 25.04 1.7 35.1 89 0.1 32.2
06:25 1018 30.06 848 25.04 1.8 35.3 89 0.2 32.4
06:30 1018 30.06 848 25.04 2 35.5 89 0.3 32.5
06:35 1018 30.06 848 25.04 2 35.7 88 0.2 32.4
06:40 1018 30.06 848 25.04 2.2 35.9 88 0.4 32.7
06:45 1018 30.06 848 25.04 2.5 36.4 87 0.5 33
06:50 1019 30.09 848 25.04 2.6 36.7 87 0.6 33.1
06:55 1019 30.09 848 25.04 2.8 37.1 86 0.7 33.2
07:00 1019 30.09 848 25.04 3 37.4 86 0.8 33.5
07:05 1019 30.09 848 25.04 3.1 37.5 86 1 33.8
07:10 1019 30.09 848 25.04 3.2 37.7 86 1 33.8
07:15 1019 30.09 848 25.04 3.1 37.5 87 1.1 34
07:20 1019 30.09 848 25.04 3 37.4 88 1.2 34.1
07:25 1019 30.09 848 25.04 3 37.4 88 1.2 34.1
07:30 1019 30.09 848 25.04 3.1 37.7 87 1.2 34.2
07:35 1019 30.09 848 25.04 3.3 38 86 1.3 34.3
07:40 1019 30.09 848 25.04 3.5 38.3 87 1.5 34.8
07:45 1019 30.09 848 25.04 3.7 38.7 84 1.3 34.3
07:50 1019 30.09 848 25.04 3.7 38.6 84 1.2 34.2
07:55 1019 30.09 848 25.04 3.9 39 85 1.6 34.9
08:00 1019 30.09 848 25.04 4.3 39.7 83 1.5 34.8
08:05 1019 30.09 848 25.04 4.5 40.1 80 1.3 34.4
08:10 1019 30.09 848 25.04 4.8 40.6 79 1.4 34.5
08:15 1019 30.09 848 25.04 4.8 40.6 78 1.2 34.2
08:20 1019 30.09 848 25.04 4.9 40.8 78 1.3 34.3
08:25 1019 30.09 848 25.04 5 40.9 78 1.4 34.5
08:30 1019 30.09 848 25.04 5.1 41.1 78 1.5 34.7
08:35 1019 30.09 848 25.04 5 41 77 1.2 34.2
08:40 1019 30.09 848 25.04 5 41 77 1.4 34.4
08:45 1019 30.09 848 25.04 4.9 40.8 75 0.8 33.4
08:50 1019 30.09 848 25.04 4.7 40.4 78 1.1 34
08:55 1019 30.09 848 25.04 4.6 40.3 78 1.1 34
09:00 1019 30.09 848 25.04 4.5 40.1 79 1.1 34
09:05 1019 30.09 848 25.04 4.7 40.5 79 1.4 34.5
09:10 1019 30.09 848 25.04 5 41 77 1.3 34.4
09:15 1019 30.09 848 25.04 5.1 41.2 75 1.1 33.9
09:20 1019 30.09 848 25.04 5 40.9 75 0.9 33.6
09:25 1019 30.09 849 25.07 4.9 40.8 74 0.7 33.3
09:30 1019 30.09 849 25.07 4.8 40.6 76 0.9 33.6
09:35 1019 30.09 849 25.07 4.8 40.6 75 0.8 33.4
09:40 1020 30.12 849 25.07 4.9 40.9 77 1.3 34.3
09:45 1019 30.09 849 25.07 5.3 41.6 73 0.9 33.7
09:50 1019 30.09 849 25.07 5.4 41.7 71 0.6 33.1
09:55 1019 30.09 849 25.07 5.2 41.3 71 0.3 32.6
10:00 1020 30.12 849 25.07 5.3 41.5 72 0.7 33.3
10:05 1020 30.12 849 25.07 5.5 41.8 69 0.3 32.6
10:10 1020 30.12 849 25.07 5.5 41.8 67 -0.1 31.8
10:15 1020 30.12 849 25.07 5.5 41.9 66 -0.4 31.3
10:20 1020 30.12 849 25.07 5.8 42.5 65 -0.3 31.4
10:25 1020 30.12 849 25.07 6 42.7 64 -0.3 31.5
10:30 1020 30.12 849 25.07 6.1 43.1 64 -0 31.9
10:35 1020 30.12 849 25.07 6.2 43.2 61 -0.7 30.7
10:40 1020 30.12 849 25.07 6.5 43.8 62 -0.3 31.5
10:45 1020 30.12 849 25.07 7 44.5 61 -0.1 31.8
10:50 1020 30.12 849 25.07 6.9 44.3 61 -0 31.9
10:55 1020 30.12 849 25.07 6.5 43.8 60 -0.5 31
11:00 1020 30.12 849 25.07 6.5 43.7 59 -0.8 30.5
11:05 1020 30.12 849 25.07 7.1 44.7 58 -0.7 30.8
11:10 1020 30.12 849 25.07 7.1 44.8 51 -2.3 27.9
11:15 1020 30.12 849 25.07 7.7 45.9 48 -2.6 27.4
11:20 1020 30.12 849 25.07 8.8 47.9 48 -1.6 29.2
11:25 1020 30.12 849 25.07 8.7 47.6 48 -1.6 29.2
11:30 1020 30.12 849 25.07 7.7 45.9 50 -2 28.4
11:35 1020 30.12 849 25.07 7.6 45.6 53 -1.3 29.6
11:40 1020 30.12 849 25.07 7.9 46.2 50 -1.9 28.6
11:45 1020 30.12 849 25.07 8.2 46.8 46 -2.7 27.2
11:50 1020 30.12 849 25.07 8.9 48.1 46 -2.1 28.2
11:55 1020 30.12 849 25.07 9.2 48.5 45 -2.1 28.3
12:00 1020 30.12 849 25.07 9.2 48.5 44 -2.3 27.8
12:05 1020 30.12 849 25.07 9 48.2 44 -2.7 27.1
12:10 1020 30.12 849 25.07 9.1 48.5 43 -2.6 27.3
12:15 1020 30.12 849 25.07 9.1 48.5 43 -2.8 26.9
12:20 1020 30.12 849 25.07 9.6 49.4 43 -2.2 28.1
12:25 1020 30.12 849 25.07 9.6 49.4 42 -2.8 27
12:30 1020 30.12 849 25.07 10.1 50.1 42 -2.4 27.7
12:35 1020 30.12 849 25.07 10.3 50.6 41 -2.3 27.9
12:40 1020 30.12 849 25.07 10.3 50.5 40 -2.8 26.9
12:45 1020 30.12 849 25.07 10.1 50.2 40 -3 26.7
12:50 1020 30.12 849 25.07 10.2 50.3 40 -2.8 27
12:55 1020 30.12 849 25.07 10.2 50.3 39 -3.1 26.4
13:00 1020 30.12 849 25.07 10.2 50.3 39 -3 26.6
13:05 1020 30.12 849 25.07 10.5 50.9 39 -3 26.7
13:10 1020 30.12 849 25.07 10.8 51.5 38 -2.9 26.8
13:15 1020 30.12 849 25.07 10.5 51 37 -3.5 25.7
13:20 1020 30.12 849 25.07 10.8 51.5 37 -3.1 26.4
13:25 1020 30.12 849 25.07 11.1 52 36 -3.5 25.7
13:30 1020 30.12 849 25.07 10.4 50.8 38 -3.4 25.8
13:35 1020 30.12 849 25.07 10.6 51 36 -3.8 25.2
13:40 1020 30.12 849 25.07 10.6 51 36 -3.8 25.1
13:45 1020 30.12 849 25.07 10.5 51 36 -3.8 25.1
13:50 1020 30.12 849 25.07 10.3 50.5 36 -4.1 24.6
13:55 1020 30.12 849 25.07 10.2 50.4 37 -3.8 25.1
14:00 1020 30.12 849 25.07 10.6 51.1 36 -3.9 25
14:05 1020 30.12 849 25.07 10.2 50.4 34 -5.1 22.9
14:10 1020 30.12 849 25.07 9.9 49.7 34 -5.2 22.7
14:15 1020 30.12 849 25.07 9.9 49.8 35 -5 23.1
14:20 1020 30.12 849 25.07 10.1 50.2 34 -5.1 22.9
14:25 1020 30.12 849 25.07 9.9 49.9 33 -5.5 22.2
14:30 1020 30.12 850 25.1 9.9 49.9 34 -5.3 22.4
14:35 1020 30.12 850 25.1 9.9 49.7 35 -4.9 23.2
14:40 1020 30.12 850 25.1 10 50 36 -4.5 23.9
14:45 1020 30.12 849 25.07 10.1 50.1 36 -4.4 24
14:50 1020 30.12 850 25.1 10.3 50.5 34 -4.9 23.2
14:55 1020 30.12 850 25.1 10.2 50.4 34 -4.9 23.1
15:00 1020 30.12 850 25.1 10.1 50.1 34 -5 22.9
15:05 1020 30.12 850 25.1 9.9 49.8 35 -4.8 23.3
15:10 1020 30.12 850 25.1 9.9 49.7 34 -5.4 22.4
15:15 1020 30.12 850 25.1 9.8 49.7 33 -5.6 21.9
15:20 1020 30.12 850 25.1 9.9 49.8 33 -5.4 22.2
15:25 1021 30.15 850 25.1 10.1 50.1 33 -5.3 22.4
15:30 1021 30.15 850 25.1 10 50 33 -5.3 22.4
15:35 1021 30.15 850 25.1 10.2 50.4 33 -5.4 22.2
15:40 1021 30.15 850 25.1 10.2 50.3 33 -5.5 22.2
15:45 1021 30.15 850 25.1 10.2 50.3 33 -5.5 22.2
15:50 1021 30.15 850 25.1 10.4 50.8 32 -5.5 22.2
15:55 1021 30.15 850 25.1 10.3 50.5 32 -5.5 22.1
16:00 1021 30.15 850 25.1 10.5 50.9 32 -5.5 22.2
16:05 1021 30.15 850 25.1 10.5 50.9 32 -5.3 22.5
16:10 1021 30.15 850 25.1 10.3 50.6 33 -5.4 22.3
16:15 1021 30.15 850 25.1 10.6 51.1 33 -5 23
16:20 1021 30.15 850 25.1 10.8 51.4 33 -5 23
16:25 1021 30.15 850 25.1 10.8 51.5 32 -5 22.9
16:30 1021 30.15 850 25.1 10.9 51.6 32 -5.3 22.5
16:35 1021 30.15 850 25.1 11.2 52.2 31 -5.4 22.2
16:40 1021 30.15 850 25.1 11.1 51.9 31 -5.4 22.2
16:45 1021 30.15 850 25.1 11.2 52.2 31 -5.2 22.7
16:50 1021 30.15 850 25.1 11.2 52.1 31 -5.1 22.7
16:55 1021 30.15 850 25.1 11 51.8 31 -5.3 22.5
17:00 1021 30.15 850 25.1 11.1 52.1 31 -5.5 22.1
17:05 1021 30.15 850 25.1 10.9 51.7 32 -5.2 22.7
17:10 1021 30.15 850 25.1 10.5 50.8 33 -5.3 22.5
17:15 1021 30.15 850 25.1 10.2 50.4 32 -5.8 21.6
17:20 1021 30.15 850 25.1 10.7 51.3 32 -5.5 22.2
17:25 1021 30.15 850 25.1 10.5 51 32 -5.3 22.4
17:30 1021 30.15 850 25.1 10.9 51.5 32 -5.3 22.5
17:35 1021 30.15 850 25.1 10.6 51 32 -5.6 22
17:40 1021 30.15 850 25.1 10.3 50.6 32 -5.5 22
17:45 1021 30.15 850 25.1 10.3 50.6 32 -5.5 22.1
17:50 1021 30.15 850 25.1 10.2 50.3 33 -5.6 22
17:55 1021 30.15 850 25.1 10.2 50.3 33 -5.5 22.1
18:00 1021 30.15 850 25.1 10.1 50.1 33 -5.6 21.9
18:05 1021 30.15 850 25.1 10.1 50.1 33 -5.6 21.9
18:10 1021 30.15 850 25.1 10 50 33 -5.6 22
18:15 1021 30.15 850 25.1 9.9 49.9 33 -5.5 22
18:20 1021 30.15 850 25.1 9.8 49.6 33 -5.6 21.9
18:25 1021 30.15 850 25.1 9.8 49.7 33 -5.9 21.4
18:30 1021 30.15 850 25.1 9.8 49.6 33 -5.6 22
18:35 1021 30.15 850 25.1 9.6 49.3 35 -5.2 22.6
18:40 1021 30.15 850 25.1 9.2 48.6 35 -5.3 22.4
18:45 1021 30.15 850 25.1 9.2 48.5 36 -5 22.9
18:50 1021 30.15 850 25.1 8.8 47.8 40 -3.9 25
18:55 1021 30.15 850 25.1 8.5 47.2 37 -5.5 22.1
19:00 1021 30.15 850 25.1 8.2 46.8 38 -5.3 22.4
19:05 1021 30.15 851 25.13 8.3 46.9 38 -5 22.9
19:10 1021 30.15 851 25.13 8.4 47.1 38 -5.3 22.5
19:15 1021 30.15 851 25.13 8.2 46.8 37 -5.5 22.2
19:20 1022 30.18 851 25.13 8.2 46.8 38 -5.4 22.3
19:25 1022 30.18 851 25.13 8.1 46.6 39 -5.1 22.8
19:30 1022 30.18 851 25.13 8 46.3 39 -5.2 22.6
19:35 1022 30.18 851 25.13 7.9 46.1 39 -5.4 22.3
19:40 1022 30.18 851 25.13 7.7 45.9 39 -5.4 22.3
19:45 1022 30.18 851 25.13 7.7 45.8 40 -5.2 22.7
19:50 1022 30.18 851 25.13 7.6 45.6 39 -5.4 22.4
19:55 1022 30.18 851 25.13 7.5 45.5 40 -5.3 22.5
20:00 1022 30.18 851 25.13 7.4 45.4 40 -5.2 22.7
20:05 1022 30.18 852 25.16 7.4 45.2 40 -5.3 22.5
20:10 1022 30.18 852 25.16 7.3 45.1 41 -5 22.9
20:15 1023 30.21 852 25.16 7.2 45 40 -5.4 22.4
20:20 1023 30.21 852 25.16 7.1 44.8 40 -5.5 22.1
20:25 1023 30.21 852 25.16 7.1 44.7 41 -5.3 22.5
20:30 1023 30.21 852 25.16 6.9 44.5 42 -5.2 22.6
20:35 1023 30.21 852 25.16 6.8 44.3 42 -5.3 22.4
20:40 1023 30.21 852 25.16 6.7 44.1 42 -5.2 22.7
20:45 1023 30.21 852 25.16 6.7 44 42 -5.4 22.3
20:50 1023 30.21 852 25.16 6.7 44 42 -5.3 22.4
20:55 1023 30.21 852 25.16 6.6 43.9 42 -5.3 22.4
21:00 1023 30.21 853 25.19 6.6 43.8 42 -5.3 22.5
21:05 1023 30.21 853 25.19 6.6 43.8 42 -5.3 22.5
21:10 1023 30.21 853 25.19 6.6 43.8 43 -5.2 22.6
21:15 1024 30.24 853 25.19 6.5 43.7 42 -5.5 22.1
21:20 1024 30.24 853 25.19 6.4 43.6 42 -5.5 22.1
21:25 1024 30.24 853 25.19 6.3 43.4 42 -5.6 21.9
21:30 1024 30.24 853 25.19 6.3 43.3 43 -5.5 22.1
21:35 1024 30.24 853 25.19 6.1 43 43 -5.5 22.2
21:40 1024 30.24 853 25.19 6 42.8 43 -5.6 22
21:45 1024 30.24 853 25.19 6 42.7 44 -5.3 22.4
21:50 1024 30.24 853 25.19 5.9 42.6 44 -5.4 22.3
21:55 1024 30.24 853 25.19 5.8 42.5 44 -5.5 22.1
22:00 1024 30.24 853 25.19 5.8 42.4 45 -5.4 22.4
22:05 1024 30.24 854 25.22 5.8 42.4 44 -5.4 22.3
22:10 1024 30.24 854 25.22 5.8 42.4 45 -5.4 22.3
22:15 1025 30.27 854 25.22 5.8 42.4 45 -5.3 22.4
22:20 1025 30.27 854 25.22 5.8 42.5 44 -5.4 22.3
22:25 1025 30.27 854 25.22 5.9 42.6 44 -5.4 22.2
22:30 1025 30.27 854 25.22 5.9 42.7 44 -5.5 22.1
22:35 1025 30.27 854 25.22 6 42.7 43 -5.5 22
22:40 1025 30.27 854 25.22 6 42.7 43 -5.6 22
22:45 1025 30.27 854 25.22 5.9 42.7 44 -5.5 22.1
22:50 1025 30.27 854 25.22 5.9 42.7 43 -5.6 21.9
22:55 1025 30.27 854 25.22 5.9 42.7 44 -5.5 22
23:00 1025 30.27 854 25.22 5.9 42.6 44 -5.5 22.1
23:05 1025 30.27 854 25.22 5.9 42.6 43 -5.6 21.9
23:10 1025 30.27 854 25.22 5.9 42.7 44 -5.5 22.1
23:15 1025 30.27 854 25.22 5.7 42.3 44 -5.4 22.2
23:20 1025 30.27 854 25.22 5.7 42.3 44 -5.4 22.2
23:25 1025 30.27 854 25.22 5.7 42.3 45 -5.3 22.4
23:30 1025 30.27 854 25.22 5.7 42.2 45 -5.2 22.6
23:35 1025 30.27 854 25.22 5.6 42 46 -5.2 22.7
23:40 1025 30.27 854 25.22 5.5 41.9 46 -5.3 22.5
23:45 1025 30.27 854 25.22 5.5 41.8 46 -5.2 22.6
23:50 1025 30.27 854 25.22 5.4 41.7 46 -5.2 22.6
23:55 1025 30.27 854 25.22 5.4 41.7 46 -5.4 22.2
24:00 1025 30.27 854 25.22 5.2 41.4 46 -5.4 22.3